Time;durP1;ratioP1;P1;durP2;ratioP2;P2;SDS_P1;SDS_P2;PMS_P1;PMS_P2;Temp;Humidity;BMP_temperature;BMP_pressure;BME280_temperature;BME280_humidity;BME280_pressure;Samples;Min_cycle;Max_cycle;Signal;HPM_P1;HPM_P2
2023/03/26 00:02:08;;;;;;;5.68;4.22;;;;;;;;;;5020566;28;20098;-92
2023/03/26 00:04:34;;;;;;;6.90;4.57;;;;;;;;;;5018938;28;20036;-93
2023/03/26 00:07:00;;;;;;;7.05;4.70;;;;;;;;;;5019917;28;20109;-93
2023/03/26 00:09:28;;;;;;;6.15;4.10;;;;;;;;;;5018991;28;20034;-93
2023/03/26 00:14:58;;;;;;;5.68;4.13;;;;;;;;;;5019898;28;20025;-93
2023/03/26 00:17:24;;;;;;;7.40;4.55;;;;;;;;;;5026414;28;20018;-93
2023/03/26 00:19:52;;;;;;;7.40;4.95;;;;;;;;;;5039485;28;20026;-92
2023/03/26 00:22:18;;;;;;;9.55;4.75;;;;;;;;;;5038897;28;20033;-93
2023/03/26 00:24:47;;;;;;;6.90;4.90;;;;;;;;;;5039440;28;20041;-94
2023/03/26 00:27:13;;;;;;;6.82;4.82;;;;;;;;;;5038076;28;20036;-94
2023/03/26 00:29:39;;;;;;;7.45;4.18;;;;;;;;;;5038453;28;20041;-94
2023/03/26 00:32:05;;;;;;;8.00;4.38;;;;;;;;;;5038350;28;20021;-93
2023/03/26 00:34:33;;;;;;;10.80;4.85;;;;;;;;;;5038443;28;20053;-92
2023/03/26 00:37:01;;;;;;;8.73;4.50;;;;;;;;;;5039151;28;20029;-92
2023/03/26 00:39:28;;;;;;;8.05;4.20;;;;;;;;;;5039148;28;20075;-94
2023/03/26 00:41:54;;;;;;;6.97;4.15;;;;;;;;;;5039149;28;20029;-93
2023/03/26 00:47:40;;;;;;;5.97;4.30;;;;;;;;;;5038670;28;20043;-92
2023/03/26 00:50:14;;;;;;;6.75;4.40;;;;;;;;;;5038260;28;20109;-93
2023/03/26 00:53:07;;;;;;;7.28;4.20;;;;;;;;;;5038295;28;20105;-93
2023/03/26 00:55:34;;;;;;;6.97;3.85;;;;;;;;;;5016852;28;20050;-93
2023/03/26 00:58:09;;;;;;;6.50;4.10;;;;;;;;;;5017253;28;20309;-94
2023/03/26 01:00:39;;;;;;;4.72;3.47;;;;;;;;;;5000799;28;20029;-93
2023/03/26 01:03:11;;;;;;;5.88;3.70;;;;;;;;;;5000617;28;20452;-93
2023/03/26 01:06:06;;;;;;;6.25;3.80;;;;;;;;;;5015912;28;20440;-94
2023/03/26 01:08:51;;;;;;;8.25;4.05;;;;;;;;;;5013624;28;20061;-92
2023/03/26 01:11:26;;;;;;;6.95;4.10;;;;;;;;;;5000546;28;20022;-92
2023/03/26 01:13:57;;;;;;;5.72;4.18;;;;;;;;;;5016892;28;20030;-92
2023/03/26 01:16:43;;;;;;;5.68;3.72;;;;;;;;;;5016576;28;20034;-92
2023/03/26 01:19:19;;;;;;;6.30;3.97;;;;;;;;;;5016848;28;20348;-94
2023/03/26 01:21:46;;;;;;;6.72;3.88;;;;;;;;;;5000188;28;20030;-94
2023/03/26 01:24:12;;;;;;;5.20;3.67;;;;;;;;;;5017013;28;20475;-94
2023/03/26 01:26:38;;;;;;;7.28;3.67;;;;;;;;;;5016778;28;20511;-95
2023/03/26 01:29:26;;;;;;;6.80;4.18;;;;;;;;;;5013904;28;20049;-94
2023/03/26 01:31:56;;;;;;;5.93;3.78;;;;;;;;;;5021815;28;20029;-93
2023/03/26 01:34:36;;;;;;;8.25;4.30;;;;;;;;;;5038278;28;20423;-95
2023/03/26 01:37:05;;;;;;;8.60;3.88;;;;;;;;;;5038199;28;20025;-94
2023/03/26 01:39:52;;;;;;;6.00;4.30;;;;;;;;;;5038310;28;20021;-93
2023/03/26 01:42:33;;;;;;;7.68;4.10;;;;;;;;;;5047680;28;20104;-93
2023/03/26 01:45:02;;;;;;;6.18;3.95;;;;;;;;;;5036345;28;20053;-92
2023/03/26 01:47:31;;;;;;;6.97;3.60;;;;;;;;;;5037299;28;20044;-94
2023/03/26 01:49:57;;;;;;;5.53;4.05;;;;;;;;;;5038031;28;20045;-93
2023/03/26 01:52:26;;;;;;;5.38;3.65;;;;;;;;;;5037951;28;20026;-92
2023/03/26 01:54:56;;;;;;;8.38;3.65;;;;;;;;;;5037073;28;20419;-92
2023/03/26 01:57:41;;;;;;;5.47;3.70;;;;;;;;;;5037587;28;20412;-93
2023/03/26 02:00:10;;;;;;;6.47;3.58;;;;;;;;;;5037502;28;20025;-93
2023/03/26 02:03:06;;;;;;;;;;;;;;;;;;;;;
2023/03/26 02:05:37;;;;;;;6.82;3.97;;;;;;;;;;5037551;28;20136;-93
2023/03/26 02:08:12;;;;;;;5.82;3.80;;;;;;;;;;5036782;28;20041;-94
2023/03/26 02:10:46;;;;;;;5.75;3.80;;;;;;;;;;5037953;28;20017;-91
2023/03/26 02:13:31;;;;;;;8.27;3.85;;;;;;;;;;5017049;28;20038;-90
2023/03/26 02:16:01;;;;;;;4.60;3.47;;;;;;;;;;5017681;28;20029;-92
2023/03/26 02:18:40;;;;;;;5.60;3.80;;;;;;;;;;5017831;28;20030;-90
2023/03/26 02:21:12;;;;;;;5.60;3.92;;;;;;;;;;5016529;28;20026;-90
2023/03/26 02:23:45;;;;;;;9.68;5.05;;;;;;;;;;5017990;28;20034;-91
2023/03/26 02:26:12;;;;;;;14.50;6.50;;;;;;;;;;5018046;28;20357;-91
2023/03/26 02:28:38;;;;;;;10.00;5.43;;;;;;;;;;5017921;28;20098;-91
2023/03/26 02:31:05;;;;;;;8.35;4.82;;;;;;;;;;5020936;28;20112;-90
2023/03/26 02:33:31;;;;;;;9.30;4.68;;;;;;;;;;5036943;28;20424;-91
2023/03/26 02:36:00;;;;;;;6.20;3.90;;;;;;;;;;5037435;28;20025;-90
2023/03/26 02:38:27;;;;;;;4.60;3.80;;;;;;;;;;5036631;28;20026;-90
2023/03/26 02:40:53;;;;;;;5.93;4.03;;;;;;;;;;5037514;28;20479;-90
2023/03/26 02:43:19;;;;;;;5.95;3.90;;;;;;;;;;5037567;28;20071;-92
2023/03/26 02:45:45;;;;;;;7.15;4.10;;;;;;;;;;5036782;28;20315;-92
2023/03/26 02:48:12;;;;;;;8.80;4.07;;;;;;;;;;5036283;28;20037;-92
2023/03/26 02:50:38;;;;;;;5.63;3.92;;;;;;;;;;5036500;28;20428;-92
2023/03/26 02:53:05;;;;;;;5.93;3.85;;;;;;;;;;5037376;28;20072;-91
2023/03/26 02:55:31;;;;;;;5.75;4.13;;;;;;;;;;5037172;28;20025;-92
2023/03/26 03:01:01;;;;;;;6.05;4.25;;;;;;;;;;5040864;28;20032;-93
2023/03/26 03:03:28;;;;;;;6.28;4.30;;;;;;;;;;5039790;28;20053;-92
2023/03/26 03:06:00;;;;;;;8.32;4.50;;;;;;;;;;5040974;28;20044;-92
2023/03/26 03:08:28;;;;;;;5.55;4.22;;;;;;;;;;5040763;28;20045;-92
2023/03/26 03:11:11;;;;;;;6.00;4.38;;;;;;;;;;5040824;28;20030;-93
2023/03/26 03:13:37;;;;;;;5.85;4.22;;;;;;;;;;5039554;28;20072;-92
2023/03/26 03:16:03;;;;;;;7.93;4.65;;;;;;;;;;5039361;28;20032;-92
2023/03/26 03:18:29;;;;;;;7.55;4.65;;;;;;;;;;5039342;28;20032;-92
2023/03/26 03:20:55;;;;;;;6.15;4.07;;;;;;;;;;5039481;28;20160;-92
2023/03/26 03:23:21;;;;;;;6.38;4.13;;;;;;;;;;5040767;28;20056;-94
2023/03/26 03:25:49;;;;;;;7.78;4.78;;;;;;;;;;5039794;28;20067;-92
2023/03/26 03:28:52;;;;;;;6.90;4.65;;;;;;;;;;5046952;28;20025;-92
2023/03/26 03:31:24;;;;;;;11.25;4.50;;;;;;;;;;5040086;28;20048;-92
2023/03/26 03:33:53;;;;;;;14.27;6.57;;;;;;;;;;5039072;28;20131;-93
2023/03/26 03:36:22;;;;;;;10.93;6.47;;;;;;;;;;5040375;28;20030;-93
2023/03/26 03:38:50;;;;;;;13.88;7.18;;;;;;;;;;5039198;28;20064;-94
2023/03/26 03:41:17;;;;;;;14.68;7.05;;;;;;;;;;5040318;28;20347;-93
2023/03/26 03:47:12;;;;;;;13.10;6.35;;;;;;;;;;5039982;28;20068;-95
2023/03/26 03:49:43;;;;;;;8.13;4.55;;;;;;;;;;5038869;28;20021;-95
2023/03/26 03:52:09;;;;;;;10.38;4.90;;;;;;;;;;5038901;28;20021;-94
2023/03/26 03:54:35;;;;;;;7.50;4.72;;;;;;;;;;5039953;28;20097;-95
2023/03/26 03:57:02;;;;;;;6.97;4.80;;;;;;;;;;5039738;28;20056;-94
2023/03/26 03:59:37;;;;;;;6.53;4.43;;;;;;;;;;5040245;28;20033;-93
2023/03/26 04:02:03;;;;;;;9.75;4.88;;;;;;;;;;5039809;28;20130;-94
2023/03/26 04:04:31;;;;;;;11.57;4.95;;;;;;;;;;5038778;28;20033;-93
2023/03/26 04:06:57;;;;;;;7.03;4.43;;;;;;;;;;5039397;28;20026;-96
2023/03/26 04:09:23;;;;;;;7.80;5.10;;;;;;;;;;5037881;28;20075;-93
2023/03/26 04:11:49;;;;;;;9.18;5.30;;;;;;;;;;5038831;28;20400;-93
2023/03/26 04:14:18;;;;;;;12.48;7.85;;;;;;;;;;5039719;28;20400;-93
2023/03/26 04:16:44;;;;;;;6.85;4.78;;;;;;;;;;5038520;28;20404;-93
2023/03/26 04:19:13;;;;;;;23.17;14.07;;;;;;;;;;5038345;28;20423;-93
2023/03/26 04:21:41;;;;;;;21.42;11.63;;;;;;;;;;5039577;28;20045;-91
2023/03/26 04:24:07;;;;;;;10.27;6.78;;;;;;;;;;5039426;28;20029;-92
2023/03/26 04:26:34;;;;;;;13.50;6.80;;;;;;;;;;5039035;28;20026;-92
2023/03/26 04:29:03;;;;;;;12.32;7.32;;;;;;;;;;5039352;28;20021;-91
2023/03/26 04:31:29;;;;;;;10.27;5.38;;;;;;;;;;5038964;28;20057;-93
2023/03/26 04:33:58;;;;;;;15.38;7.30;;;;;;;;;;5038823;28;20029;-93
2023/03/26 04:36:30;;;;;;;8.73;5.03;;;;;;;;;;5038099;28;20032;-92
2023/03/26 04:39:01;;;;;;;7.85;5.10;;;;;;;;;;5039452;28;20056;-92
2023/03/26 04:41:28;;;;;;;5.80;4.82;;;;;;;;;;5037863;28;20068;-92
2023/03/26 04:43:55;;;;;;;6.35;4.60;;;;;;;;;;5038423;28;20052;-94
2023/03/26 04:46:22;;;;;;;8.27;4.95;;;;;;;;;;5037925;28;20021;-92
2023/03/26 04:48:48;;;;;;;10.82;5.80;;;;;;;;;;5038936;28;20029;-93
2023/03/26 04:51:20;;;;;;;9.07;5.85;;;;;;;;;;5039345;28;20026;-93
2023/03/26 04:53:58;;;;;;;10.35;5.97;;;;;;;;;;5038702;28;20411;-93
2023/03/26 04:56:24;;;;;;;10.52;6.15;;;;;;;;;;5037739;28;20035;-93
2023/03/26 04:58:50;;;;;;;7.75;4.85;;;;;;;;;;5037822;28;20026;-93
2023/03/26 05:01:17;;;;;;;6.38;4.40;;;;;;;;;;5038409;28;20029;-92
2023/03/26 05:03:44;;;;;;;7.72;5.20;;;;;;;;;;5038241;28;20025;-92
2023/03/26 05:06:10;;;;;;;34.88;19.85;;;;;;;;;;5038350;28;20075;-90
2023/03/26 05:08:36;;;;;;;44.08;27.48;;;;;;;;;;5037278;28;20032;-92
2023/03/26 05:11:06;;;;;;;13.80;9.82;;;;;;;;;;5037668;28;20022;-90
2023/03/26 05:13:32;;;;;;;8.52;5.82;;;;;;;;;;5041240;28;20079;-91
2023/03/26 05:15:58;;;;;;;9.63;4.95;;;;;;;;;;5059738;28;20029;-91
2023/03/26 05:18:24;;;;;;;8.20;5.60;;;;;;;;;;5051430;28;20033;-90
2023/03/26 05:20:50;;;;;;;12.23;7.00;;;;;;;;;;5057759;28;20025;-89
2023/03/26 05:23:16;;;;;;;9.48;6.30;;;;;;;;;;5049288;28;20030;-92
2023/03/26 05:25:43;;;;;;;9.60;6.00;;;;;;;;;;5047520;28;20029;-92
2023/03/26 05:28:09;;;;;;;12.73;7.00;;;;;;;;;;5058058;28;20094;-92
2023/03/26 05:30:36;;;;;;;13.48;6.78;;;;;;;;;;5055278;28;20041;-92
2023/03/26 05:33:03;;;;;;;17.67;9.85;;;;;;;;;;5037010;28;20125;-92
2023/03/26 05:35:29;;;;;;;13.93;9.23;;;;;;;;;;5038038;28;20108;-92
2023/03/26 05:37:55;;;;;;;9.25;5.97;;;;;;;;;;5043953;28;20028;-92
2023/03/26 05:40:21;;;;;;;7.60;4.93;;;;;;;;;;5057101;28;20028;-93
2023/03/26 05:42:47;;;;;;;7.13;4.70;;;;;;;;;;5056775;28;20029;-93
2023/03/26 05:48:19;;;;;;;5.15;4.18;;;;;;;;;;5057787;28;20040;-93
2023/03/26 05:50:47;;;;;;;7.15;3.88;;;;;;;;;;5056775;28;20057;-93
2023/03/26 05:53:13;;;;;;;6.82;3.80;;;;;;;;;;5054479;28;20029;-94
2023/03/26 05:55:39;;;;;;;5.93;4.00;;;;;;;;;;5037924;28;20416;-92
2023/03/26 05:58:05;;;;;;;8.30;4.20;;;;;;;;;;5046357;28;20025;-93
2023/03/26 06:00:37;;;;;;;10.65;6.25;;;;;;;;;;5048999;28;20037;-93
2023/03/26 06:03:03;;;;;;;10.52;6.85;;;;;;;;;;5057759;28;20059;-92
2023/03/26 06:05:32;;;;;;;12.10;6.90;;;;;;;;;;5056770;28;20078;-93
2023/03/26 06:07:58;;;;;;;7.50;5.63;;;;;;;;;;5057308;28;20431;-92
2023/03/26 06:10:24;;;;;;;6.28;4.68;;;;;;;;;;5055410;28;20086;-92
2023/03/26 06:12:51;;;;;;;5.82;4.15;;;;;;;;;;5039881;28;20028;-91
2023/03/26 06:18:23;;;;;;;5.97;4.30;;;;;;;;;;5065102;28;20032;-93
2023/03/26 06:20:50;;;;;;;7.50;4.80;;;;;;;;;;5077165;28;20021;-93
2023/03/26 06:23:16;;;;;;;8.35;5.18;;;;;;;;;;5052615;28;20031;-94
2023/03/26 06:25:44;;;;;;;6.28;4.78;;;;;;;;;;5039825;28;20029;-93
2023/03/26 06:28:10;;;;;;;7.40;5.45;;;;;;;;;;5037107;28;20033;-93
2023/03/26 06:30:49;;;;;;;6.22;5.05;;;;;;;;;;5021865;28;20072;-92
2023/03/26 06:33:15;;;;;;;9.43;6.45;;;;;;;;;;5040038;28;20377;-93
2023/03/26 06:35:42;;;;;;;8.77;5.78;;;;;;;;;;5041368;28;20461;-92
2023/03/26 06:38:09;;;;;;;8.07;6.15;;;;;;;;;;5040384;28;20027;-92
2023/03/26 06:40:35;;;;;;;5.68;3.92;;;;;;;;;;5041262;28;20025;-91
2023/03/26 06:43:01;;;;;;;5.55;3.58;;;;;;;;;;5049872;28;20423;-91
2023/03/26 06:45:29;;;;;;;5.78;2.70;;;;;;;;;;5060640;28;20021;-91
2023/03/26 06:47:55;;;;;;;4.93;3.00;;;;;;;;;;5061085;28;20029;-89
2023/03/26 06:50:21;;;;;;;5.35;4.03;;;;;;;;;;5059980;28;20029;-90
2023/03/26 06:52:47;;;;;;;6.13;3.90;;;;;;;;;;5060103;28;20017;-86
2023/03/26 06:55:36;;;;;;;6.68;4.78;;;;;;;;;;5059762;28;20290;-91
2023/03/26 06:58:02;;;;;;;7.75;5.30;;;;;;;;;;5019540;28;20037;-84
2023/03/26 07:01:01;;;;;;;8.38;5.13;;;;;;;;;;5003874;28;20045;-90
2023/03/26 07:03:27;;;;;;;6.30;4.28;;;;;;;;;;5003074;28;20034;-90
2023/03/26 07:05:53;;;;;;;10.43;6.03;;;;;;;;;;5019383;28;20069;-90
2023/03/26 07:08:19;;;;;;;10.90;6.72;;;;;;;;;;5018961;28;20026;-89
2023/03/26 07:10:47;;;;;;;4.72;3.63;;;;;;;;;;5002806;28;20034;-91
2023/03/26 07:13:13;;;;;;;5.65;4.05;;;;;;;;;;5002701;28;20625;-90
2023/03/26 07:21:45;;;;;;;5.30;3.28;;;;;;;;;;5032796;28;20060;-93
2023/03/26 07:24:12;;;;;;;6.80;3.17;;;;;;;;;;5038599;28;20044;-91
2023/03/26 07:26:38;;;;;;;5.38;3.15;;;;;;;;;;5038790;28;20022;-93
2023/03/26 07:29:30;;;;;;;7.18;3.63;;;;;;;;;;5022033;28;20061;-92
2023/03/26 07:32:17;;;;;;;8.57;4.97;;;;;;;;;;5038402;28;20041;-92
2023/03/26 07:34:56;;;;;;;4.38;2.97;;;;;;;;;;5032951;28;20044;-93
2023/03/26 07:37:28;;;;;;;4.93;2.35;;;;;;;;;;5061867;28;20033;-92
2023/03/26 07:39:57;;;;;;;3.85;2.25;;;;;;;;;;5062433;28;20036;-91
2023/03/26 07:42:23;;;;;;;5.07;3.60;;;;;;;;;;5079972;28;20134;-92
2023/03/26 07:50:58;;;;;;;5.55;2.42;;;;;;;;;;5079779;28;20031;-93
2023/03/26 07:53:25;;;;;;;3.65;2.30;;;;;;;;;;5079745;28;20127;-92
2023/03/26 07:55:54;;;;;;;3.45;1.90;;;;;;;;;;5062645;28;20025;-92
2023/03/26 07:58:39;;;;;;;2.65;1.73;;;;;;;;;;5062642;28;20449;-90
2023/03/26 08:04:14;;;;;;;5.13;1.83;;;;;;;;;;5079967;28;20124;-89
2023/03/26 08:06:45;;;;;;;2.75;2.00;;;;;;;;;;5079244;28;20024;-88
2023/03/26 08:09:28;;;;;;;36.53;25.20;;;;;;;;;;5079409;28;20107;-89
2023/03/26 08:12:00;;;;;;;9.15;5.30;;;;;;;;;;5061701;28;20040;-88
2023/03/26 08:14:37;;;;;;;30.23;22.80;;;;;;;;;;5079163;28;20027;-88
2023/03/26 08:17:06;;;;;;;13.23;6.82;;;;;;;;;;5079064;28;20060;-89
2023/03/26 08:19:51;;;;;;;30.08;14.90;;;;;;;;;;5079491;28;20020;-89
2023/03/26 08:22:28;;;;;;;627.58;370.73;;;;;;;;;;5061483;28;20028;-86
2023/03/26 08:25:04;;;;;;;61.55;44.53;;;;;;;;;;5061485;28;20036;-89
2023/03/26 08:27:30;;;;;;;11.88;8.88;;;;;;;;;;5078871;28;20478;-89
2023/03/26 08:33:04;;;;;;;5.60;2.97;;;;;;;;;;5058760;28;20056;-89
2023/03/26 08:35:30;;;;;;;4.40;1.48;;;;;;;;;;5059034;28;20032;-89
2023/03/26 08:37:56;;;;;;;49.72;30.40;;;;;;;;;;5040811;28;20060;-89
2023/03/26 08:40:54;;;;;;;4.72;3.20;;;;;;;;;;5059061;28;20025;-88
2023/03/26 08:43:20;;;;;;;4.65;1.05;;;;;;;;;;4942892;29;20070;-88
2023/03/26 08:45:52;;;;;;;59.10;40.00;;;;;;;;;;4959097;28;20036;-89
2023/03/26 08:48:18;;;;;;;3.60;2.00;;;;;;;;;;4958772;28;20035;-91
2023/03/26 08:51:03;;;;;;;12.95;9.13;;;;;;;;;;4958953;29;20035;-91
2023/03/26 08:53:52;;;;;;;8.75;5.93;;;;;;;;;;4942512;29;20038;-88
2023/03/26 08:56:18;;;;;;;225.70;148.18;;;;;;;;;;4901251;29;20047;-87
2023/03/26 08:58:44;;;;;;;505.85;349.95;;;;;;;;;;4885957;29;20036;-85
2023/03/26 09:01:18;;;;;;;78.32;50.92;;;;;;;;;;4886060;29;20127;-89
2023/03/26 09:03:44;;;;;;;364.20;249.38;;;;;;;;;;4886189;29;20072;-89
2023/03/26 09:06:13;;;;;;;62.05;36.65;;;;;;;;;;4901540;29;20339;-89
2023/03/26 09:08:54;;;;;;;42.25;31.40;;;;;;;;;;4901653;29;20053;-90
2023/03/26 09:11:45;;;;;;;209.93;129.07;;;;;;;;;;4901561;29;20020;-89
2023/03/26 09:20:29;;;;;;;551.22;467.92;;;;;;;;;;4978005;28;20069;-87
2023/03/26 09:23:10;;;;;;;71.43;58.38;;;;;;;;;;4977616;28;20019;-87
2023/03/26 09:25:48;;;;;;;652.30;522.77;;;;;;;;;;4961706;28;20207;-89
2023/03/26 09:28:29;;;;;;;51.55;30.40;;;;;;;;;;4961252;28;20031;-88
2023/03/26 09:31:14;;;;;;;363.47;272.37;;;;;;;;;;4961596;28;20025;-87
2023/03/26 09:33:58;;;;;;;18.45;14.07;;;;;;;;;;5030465;28;20060;-87
2023/03/26 09:36:27;;;;;;;252.95;178.77;;;;;;;;;;5040267;28;20029;-87
2023/03/26 09:38:59;;;;;;;564.67;460.17;;;;;;;;;;5057613;28;20488;-87
2023/03/26 09:41:32;;;;;;;41.67;31.83;;;;;;;;;;5058060;28;20029;-87
2023/03/26 09:44:07;;;;;;;5.13;2.60;;;;;;;;;;5040172;28;20033;-88
2023/03/26 09:49:46;;;;;;;6.85;4.68;;;;;;;;;;5057580;28;20044;-87
2023/03/26 09:52:31;;;;;;;20.13;11.95;;;;;;;;;;5057778;28;20029;-87
2023/03/26 09:55:18;;;;;;;12.23;10.77;;;;;;;;;;5040017;28;20021;-90
2023/03/26 09:58:03;;;;;;;7.05;4.00;;;;;;;;;;5057609;28;20044;-88
2023/03/26 10:00:45;;;;;;;45.92;28.80;;;;;;;;;;5057450;28;20028;-88
2023/03/26 10:03:40;;;;;;;31.40;21.50;;;;;;;;;;5057283;28;20045;-89
2023/03/26 10:06:27;;;;;;;39.08;23.67;;;;;;;;;;4977124;28;20030;-87
2023/03/26 10:08:53;;;;;;;24.33;15.32;;;;;;;;;;4964832;28;20030;-88
2023/03/26 10:11:24;;;;;;;25.27;14.25;;;;;;;;;;4981189;28;20110;-87
2023/03/26 10:14:02;;;;;;;24.02;13.93;;;;;;;;;;4964726;28;20054;-88
2023/03/26 10:16:31;;;;;;;12.38;8.52;;;;;;;;;;4981010;28;20130;-89
2023/03/26 10:19:16;;;;;;;28.35;19.15;;;;;;;;;;4964462;28;20473;-89
2023/03/26 10:21:49;;;;;;;4.03;2.55;;;;;;;;;;4964447;28;20074;-89
2023/03/26 10:24:35;;;;;;;28.70;21.10;;;;;;;;;;4980873;28;20035;-87
2023/03/26 10:27:14;;;;;;;8.40;2.90;;;;;;;;;;4980688;28;20113;-87
2023/03/26 10:33:02;;;;;;;23.15;3.28;;;;;;;;;;4980415;28;20322;-88
2023/03/26 10:35:46;;;;;;;7.18;1.70;;;;;;;;;;4980674;28;20122;-89
2023/03/26 10:38:15;;;;;;;5.95;3.88;;;;;;;;;;4964160;28;20522;-88
2023/03/26 10:40:44;;;;;;;12.40;8.35;;;;;;;;;;4964542;28;20038;-88
2023/03/26 10:43:28;;;;;;;5.97;4.15;;;;;;;;;;5026271;28;20100;-87
2023/03/26 10:46:09;;;;;;;3.63;0.55;;;;;;;;;;5043711;28;20033;-88
2023/03/26 10:48:40;;;;;;;2.15;1.48;;;;;;;;;;5061064;28;20033;-90
2023/03/26 10:51:27;;;;;;;3.30;2.47;;;;;;;;;;5061324;28;20029;-89
2023/03/26 10:54:16;;;;;;;3.75;2.13;;;;;;;;;;5060467;28;20017;-89
2023/03/26 10:56:42;;;;;;;5.03;1.60;;;;;;;;;;5060675;28;20486;-88
2023/03/26 10:59:11;;;;;;;2.85;1.20;;;;;;;;;;5043354;28;20053;-87
2023/03/26 11:01:43;;;;;;;1.67;1.00;;;;;;;;;;5060552;28;20426;-89
2023/03/26 11:04:12;;;;;;;2.38;0.95;;;;;;;;;;5042811;28;20041;-88
2023/03/26 11:06:57;;;;;;;3.63;1.80;;;;;;;;;;5060582;28;20461;-89
2023/03/26 11:09:29;;;;;;;1.33;0.98;;;;;;;;;;5042336;28;20052;-88
2023/03/26 11:12:01;;;;;;;3.55;1.40;;;;;;;;;;5061504;28;20394;-88
2023/03/26 11:14:38;;;;;;;2.92;0.90;;;;;;;;;;5060377;28;20067;-87
2023/03/26 11:27:00;;;;;;;4.93;1.80;;;;;;;;;;5060598;28;20024;-88
2023/03/26 11:29:31;;;;;;;3.80;1.23;;;;;;;;;;5042461;28;20039;-87
2023/03/26 11:35:08;;;;;;;3.78;1.30;;;;;;;;;;5059998;28;20048;-87
2023/03/26 11:37:54;;;;;;;4.57;1.50;;;;;;;;;;5060500;28;20029;-88
2023/03/26 11:40:23;;;;;;;4.10;1.10;;;;;;;;;;5042358;28;20258;-87
2023/03/26 11:42:50;;;;;;;1.50;0.82;;;;;;;;;;5060280;28;20087;-86
2023/03/26 11:48:20;;;;;;;3.58;1.10;;;;;;;;;;5059841;28;20084;-87
2023/03/26 11:50:48;;;;;;;3.90;1.10;;;;;;;;;;5042221;28;20036;-87
2023/03/26 11:53:18;;;;;;;2.55;1.38;;;;;;;;;;5060054;28;20021;-87
2023/03/26 11:56:04;;;;;;;4.22;0.82;;;;;;;;;;5059685;28;20029;-87
2023/03/26 11:58:33;;;;;;;4.82;1.20;;;;;;;;;;5059598;28;20442;-87
2023/03/26 12:04:12;;;;;;;9.10;2.35;;;;;;;;;;5039660;28;20136;-89
2023/03/26 12:06:38;;;;;;;2.35;1.00;;;;;;;;;;5039896;28;20025;-90
2023/03/26 12:09:16;;;;;;;1.50;0.80;;;;;;;;;;5052677;28;20033;-90
2023/03/26 12:11:43;;;;;;;2.17;0.93;;;;;;;;;;5059521;28;20096;-89
2023/03/26 12:14:15;;;;;;;2.90;1.17;;;;;;;;;;5041663;28;20049;-89
2023/03/26 12:16:56;;;;;;;1.77;0.75;;;;;;;;;;5041895;28;20044;-90
2023/03/26 12:19:23;;;;;;;1.35;0.73;;;;;;;;;;5061833;28;20111;-89
2023/03/26 12:21:51;;;;;;;2.95;1.33;;;;;;;;;;5079228;28;20032;-88
2023/03/26 12:24:47;;;;;;;2.05;1.00;;;;;;;;;;5079453;28;20028;-88
2023/03/26 12:27:27;;;;;;;2.47;1.15;;;;;;;;;;5059193;28;20090;-89
2023/03/26 12:30:08;;;;;;;1.45;1.10;;;;;;;;;;5078245;28;20031;-89
2023/03/26 12:32:40;;;;;;;1.58;0.70;;;;;;;;;;5071720;28;20302;-91
2023/03/26 12:35:07;;;;;;;1.40;0.63;;;;;;;;;;5059112;28;20128;-92
2023/03/26 12:37:35;;;;;;;3.65;1.25;;;;;;;;;;5059094;28;20036;-92
2023/03/26 12:40:26;;;;;;;2.13;0.77;;;;;;;;;;5058588;28;20300;-86
2023/03/26 12:42:53;;;;;;;1.38;0.70;;;;;;;;;;5058711;28;20044;-87
2023/03/26 12:45:53;;;;;;;3.25;1.17;;;;;;;;;;5040739;28;20037;-87
2023/03/26 12:48:24;;;;;;;3.40;0.88;;;;;;;;;;5058677;28;20459;-87
2023/03/26 12:51:16;;;;;;;2.38;1.10;;;;;;;;;;5040953;28;20043;-87
2023/03/26 12:53:56;;;;;;;2.00;0.70;;;;;;;;;;5074251;28;20025;-87
2023/03/26 12:56:37;;;;;;;3.25;1.75;;;;;;;;;;5060653;28;20040;-87
2023/03/26 12:59:04;;;;;;;2.97;1.00;;;;;;;;;;5078538;28;20020;-87
2023/03/26 13:01:44;;;;;;;1.98;1.25;;;;;;;;;;5078893;28;20044;-87
2023/03/26 13:04:26;;;;;;;2.83;1.10;;;;;;;;;;5078535;28;20021;-86
2023/03/26 13:07:05;;;;;;;1.55;0.82;;;;;;;;;;5078761;28;20048;-87
2023/03/26 13:09:40;;;;;;;3.55;1.20;;;;;;;;;;5078554;28;20042;-87
2023/03/26 13:12:18;;;;;;;3.97;1.20;;;;;;;;;;5078554;28;20296;-87
2023/03/26 13:15:03;;;;;;;1.92;1.20;;;;;;;;;;5076499;28;20024;-87
2023/03/26 13:20:40;;;;;;;1.50;0.77;;;;;;;;;;5076812;28;20434;-87
2023/03/26 13:23:19;;;;;;;6.20;1.60;;;;;;;;;;5077916;28;20043;-87
2023/03/26 13:26:04;;;;;;;1.13;0.90;;;;;;;;;;5077827;28;20037;-87
2023/03/26 13:28:39;;;;;;;0.85;0.70;;;;;;;;;;5077892;28;20052;-87
2023/03/26 13:31:08;;;;;;;1.73;1.20;;;;;;;;;;5078001;28;20029;-88
2023/03/26 13:33:44;;;;;;;1.38;0.90;;;;;;;;;;5060166;28;20354;-87
2023/03/26 13:36:16;;;;;;;2.53;1.45;;;;;;;;;;5059222;28;20045;-87
2023/03/26 13:38:45;;;;;;;2.53;1.20;;;;;;;;;;5059852;28;20032;-87
2023/03/26 13:41:21;;;;;;;2.92;1.58;;;;;;;;;;5077743;28;20028;-88
2023/03/26 13:43:47;;;;;;;5.78;1.92;;;;;;;;;;5077881;28;20040;-87
2023/03/26 13:46:16;;;;;;;5.28;2.00;;;;;;;;;;5041129;28;20052;-89
2023/03/26 13:49:01;;;;;;;5.97;1.75;;;;;;;;;;5057682;28;20039;-88
2023/03/26 13:51:36;;;;;;;8.75;1.65;;;;;;;;;;5040118;28;20415;-88
2023/03/26 13:54:06;;;;;;;8.27;5.25;;;;;;;;;;5039975;28;20343;-88
2023/03/26 13:56:41;;;;;;;4.45;1.80;;;;;;;;;;5040165;28;20426;-87
2023/03/26 13:59:16;;;;;;;4.75;2.20;;;;;;;;;;5057639;28;20039;-88
2023/03/26 14:01:49;;;;;;;13.20;7.05;;;;;;;;;;5057699;28;20033;-88
2023/03/26 14:04:20;;;;;;;3.85;2.38;;;;;;;;;;5059921;28;20021;-88
2023/03/26 14:06:56;;;;;;;4.78;1.63;;;;;;;;;;5077592;28;20024;-88
2023/03/26 14:09:25;;;;;;;2.70;1.15;;;;;;;;;;5059719;28;20078;-89
2023/03/26 14:11:57;;;;;;;3.28;1.30;;;;;;;;;;5077454;28;20023;-88
2023/03/26 14:14:28;;;;;;;2.60;1.73;;;;;;;;;;5057959;28;20119;-88
2023/03/26 14:17:01;;;;;;;32.67;10.38;;;;;;;;;;5073085;28;20322;-88
2023/03/26 14:19:40;;;;;;;10.45;4.05;;;;;;;;;;5045451;28;20029;-89
2023/03/26 14:22:21;;;;;;;8.73;5.18;;;;;;;;;;5057121;28;20021;-90
2023/03/26 14:24:50;;;;;;;11.57;5.65;;;;;;;;;;5057396;28;20029;-90
2023/03/26 14:27:35;;;;;;;3.97;2.33;;;;;;;;;;5060266;28;20318;-90
2023/03/26 14:30:21;;;;;;;2.63;1.40;;;;;;;;;;5077177;28;20031;-89
2023/03/26 14:33:19;;;;;;;3.72;2.10;;;;;;;;;;5050876;28;20021;-89
2023/03/26 14:36:03;;;;;;;4.32;1.95;;;;;;;;;;4965643;28;20043;-88
2023/03/26 14:38:32;;;;;;;4.28;1.30;;;;;;;;;;4946512;29;20046;-91
2023/03/26 14:41:06;;;;;;;6.95;1.35;;;;;;;;;;4960623;28;20046;-85
2023/03/26 14:43:51;;;;;;;4.50;1.48;;;;;;;;;;4944816;29;20161;-90
2023/03/26 14:46:17;;;;;;;4.47;1.42;;;;;;;;;;4941414;29;20353;-89
2023/03/26 14:49:00;;;;;;;8.73;4.75;;;;;;;;;;4957325;29;20050;-90
2023/03/26 14:51:45;;;;;;;7.55;2.30;;;;;;;;;;4957614;29;20034;-90
2023/03/26 14:54:16;;;;;;;8.05;2.47;;;;;;;;;;4959809;28;20023;-90
2023/03/26 14:56:56;;;;;;;6.20;2.60;;;;;;;;;;4960943;28;20023;-90
2023/03/26 14:59:25;;;;;;;8.70;3.85;;;;;;;;;;4960999;28;20441;-90
2023/03/26 15:02:10;;;;;;;9.38;3.03;;;;;;;;;;4960878;28;20035;-91
2023/03/26 15:04:49;;;;;;;5.28;2.80;;;;;;;;;;4944863;29;20035;-90
2023/03/26 15:07:29;;;;;;;5.05;2.30;;;;;;;;;;4960917;28;20346;-88
2023/03/26 15:10:27;;;;;;;5.75;1.85;;;;;;;;;;4964080;28;20068;-88
2023/03/26 15:13:14;;;;;;;11.50;2.95;;;;;;;;;;4984241;28;20039;-88
2023/03/26 15:16:06;;;;;;;7.80;2.13;;;;;;;;;;4983091;28;20048;-88
2023/03/26 15:18:50;;;;;;;12.43;5.18;;;;;;;;;;4960885;28;20038;-88
2023/03/26 15:21:25;;;;;;;14.77;3.65;;;;;;;;;;4967181;28;20038;-88
2023/03/26 15:24:06;;;;;;;7.15;3.53;;;;;;;;;;4979646;28;20094;-86
2023/03/26 15:26:40;;;;;;;12.32;5.70;;;;;;;;;;4979712;28;20115;-87
2023/03/26 15:29:24;;;;;;;19.08;9.10;;;;;;;;;;4979684;28;20039;-86
2023/03/26 15:32:11;;;;;;;8.77;4.35;;;;;;;;;;4978858;28;20023;-87
2023/03/26 15:35:09;;;;;;;6.45;3.55;;;;;;;;;;4979358;28;20046;-84
2023/03/26 15:37:53;;;;;;;5.70;2.22;;;;;;;;;;4960032;29;20038;-84
2023/03/26 15:40:36;;;;;;;8.32;3.80;;;;;;;;;;4960248;28;20065;-88
2023/03/26 15:43:09;;;;;;;5.97;3.50;;;;;;;;;;4960231;29;20035;-87
2023/03/26 15:45:41;;;;;;;10.23;4.47;;;;;;;;;;4960090;29;20418;-88
2023/03/26 15:48:10;;;;;;;5.45;2.80;;;;;;;;;;4973559;28;20039;-88
2023/03/26 15:50:51;;;;;;;6.32;3.50;;;;;;;;;;4998914;28;20034;-87
2023/03/26 15:53:37;;;;;;;7.20;2.80;;;;;;;;;;4998796;28;20042;-88
2023/03/26 15:56:03;;;;;;;10.73;4.07;;;;;;;;;;4998792;28;20105;-88
2023/03/26 15:58:43;;;;;;;4.50;3.00;;;;;;;;;;4998779;28;20026;-88
2023/03/26 16:01:24;;;;;;;10.82;4.70;;;;;;;;;;4998775;28;20030;-86
2023/03/26 16:03:58;;;;;;;7.57;3.58;;;;;;;;;;4998539;28;20377;-88
2023/03/26 16:06:26;;;;;;;7.75;3.65;;;;;;;;;;5014211;28;20037;-88
2023/03/26 16:09:11;;;;;;;9.02;3.88;;;;;;;;;;4998586;28;20033;-88
2023/03/26 16:11:43;;;;;;;9.25;4.50;;;;;;;;;;4998342;28;20054;-88
2023/03/26 16:14:33;;;;;;;10.75;6.22;;;;;;;;;;5040206;28;20120;-88
2023/03/26 16:16:59;;;;;;;10.93;6.07;;;;;;;;;;4978954;28;20039;-88
2023/03/26 16:19:31;;;;;;;14.55;4.82;;;;;;;;;;4962673;28;20034;-87
2023/03/26 16:22:01;;;;;;;8.93;5.68;;;;;;;;;;4979000;28;20094;-87
2023/03/26 16:24:32;;;;;;;12.80;7.13;;;;;;;;;;4962715;28;20429;-88
2023/03/26 16:27:06;;;;;;;16.55;11.57;;;;;;;;;;4978510;28;20030;-88